createdAt,value
2022-09-03T00:03:18.746Z,19.17
2022-09-03T00:06:48.885Z,19.18
2022-09-03T00:09:51.238Z,19.26
2022-09-03T00:12:48.404Z,19.18
2022-09-03T00:15:45.807Z,19.02
2022-09-03T00:18:46.644Z,19.12
2022-09-03T00:21:57.560Z,19.24
2022-09-03T00:24:54.403Z,19.23
2022-09-03T00:27:55.205Z,19.26
2022-09-03T00:31:15.105Z,19.28
2022-09-03T00:34:12.472Z,19.22
2022-09-03T00:37:14.502Z,19.03
2022-09-03T00:40:57.597Z,18.97
2022-09-03T00:44:01.277Z,18.71
2022-09-03T00:47:09.920Z,18.51
2022-09-03T00:50:25.477Z,18.44
2022-09-03T00:53:54.935Z,18.63
2022-09-03T00:56:59.470Z,18.83
2022-09-03T01:00:00.299Z,18.88
2022-09-03T01:03:12.556Z,18.70
2022-09-03T01:06:39.962Z,18.59
2022-09-03T01:10:02.402Z,18.51
2022-09-03T01:13:03.367Z,18.39
2022-09-03T01:16:20.588Z,18.39
2022-09-03T01:19:44.163Z,18.62
2022-09-03T01:23:12.204Z,18.71
2022-09-03T01:26:32.215Z,18.75
2022-09-03T01:29:39.644Z,18.83
2022-09-03T01:32:58.897Z,18.75
2022-09-03T01:36:04.380Z,18.76
2022-09-03T01:39:03.910Z,18.53
2022-09-03T01:42:20.479Z,18.48
2022-09-03T01:45:51.191Z,18.19
2022-09-03T01:48:54.506Z,18.02
2022-09-03T01:52:03.965Z,17.86
2022-09-03T01:55:21.473Z,17.80
2022-09-03T01:58:31.595Z,17.80
2022-09-03T02:01:32.154Z,17.93
2022-09-03T02:04:29.919Z,17.94
2022-09-03T02:07:38.954Z,18.07
2022-09-03T02:10:41.941Z,18.22
2022-09-03T02:13:43.901Z,18.13
2022-09-03T02:16:40.503Z,18.07
2022-09-03T02:19:37.795Z,18.27
2022-09-03T02:22:34.767Z,18.36
2022-09-03T02:25:41.114Z,18.41
2022-09-03T02:28:38.419Z,18.06
2022-09-03T02:31:35.912Z,18.10
2022-09-03T02:34:32.928Z,18.39
2022-09-03T02:37:29.633Z,18.54
2022-09-03T02:40:26.994Z,18.44
2022-09-03T02:43:32.901Z,18.07
2022-09-03T02:46:49.923Z,18.02
2022-09-03T02:49:48.745Z,17.93
2022-09-03T02:52:46.940Z,17.79
2022-09-03T02:55:43.940Z,17.79
2022-09-03T02:58:41.527Z,17.77
2022-09-03T03:01:39.122Z,17.93
2022-09-03T03:04:39.506Z,17.85
2022-09-03T03:07:38.054Z,18.05
2022-09-03T03:10:36.307Z,18.20
2022-09-03T03:13:34.282Z,18.52
2022-09-03T03:16:31.687Z,18.40
2022-09-03T03:19:29.012Z,18.47
2022-09-03T03:22:27.980Z,18.56
2022-09-03T03:25:26.012Z,18.38
2022-09-03T03:28:23.177Z,18.11
2022-09-03T03:31:22.269Z,17.93
2022-09-03T03:34:19.696Z,18.21
2022-09-03T03:37:16.669Z,18.33
2022-09-03T03:40:13.576Z,18.13
2022-09-03T03:43:10.881Z,18.17
2022-09-03T03:46:08.038Z,18.09
2022-09-03T03:49:06.720Z,18.11
2022-09-03T03:52:04.521Z,18.34
2022-09-03T03:55:01.628Z,18.38
2022-09-03T03:57:58.981Z,18.25
2022-09-03T04:00:55.778Z,18.16
2022-09-03T04:03:55.168Z,18.00
2022-09-03T04:06:53.975Z,18.13
2022-09-03T04:09:52.109Z,18.09
2022-09-03T04:12:49.045Z,18.00
2022-09-03T04:15:46.116Z,18.12
2022-09-03T04:18:42.456Z,17.82
2022-09-03T04:21:40.108Z,17.98
2022-09-03T04:24:36.811Z,18.00
2022-09-03T04:27:33.951Z,17.86
2022-09-03T04:30:30.720Z,17.88
2022-09-03T04:33:27.832Z,17.89
2022-09-03T04:36:26.260Z,18.11
2022-09-03T04:39:23.880Z,18.20
2022-09-03T04:42:20.847Z,18.08
2022-09-03T04:45:18.965Z,17.77
2022-09-03T04:48:16.172Z,17.70
2022-09-03T04:51:14.957Z,17.49
2022-09-03T04:54:12.199Z,17.69
2022-09-03T04:57:10.506Z,17.80
2022-09-03T05:00:10.728Z,17.64
2022-09-03T05:03:08.085Z,17.82
2022-09-03T05:06:06.417Z,17.77
2022-09-03T05:09:05.298Z,17.75
2022-09-03T05:12:02.995Z,17.92
2022-09-03T05:15:04.217Z,17.93
2022-09-03T05:18:02.544Z,18.05
2022-09-03T05:21:03.128Z,17.99
2022-09-03T05:24:00.166Z,17.77
2022-09-03T05:26:56.798Z,17.77
2022-09-03T05:29:53.741Z,17.87
2022-09-03T05:32:51.393Z,17.77
2022-09-03T05:35:48.832Z,17.78
2022-09-03T05:38:46.040Z,17.81
2022-09-03T05:41:42.987Z,17.91
2022-09-03T05:44:39.863Z,17.73
2022-09-03T05:47:39.531Z,17.47
2022-09-03T05:50:37.192Z,17.49
2022-09-03T05:53:35.357Z,17.58
2022-09-03T05:56:33.584Z,17.64
2022-09-03T05:59:30.993Z,17.57
2022-09-03T06:02:28.073Z,17.68
2022-09-03T06:05:25.372Z,17.72
2022-09-03T06:08:22.764Z,17.59
2022-09-03T06:11:20.756Z,17.64
2022-09-03T06:14:18.103Z,17.66
2022-09-03T06:17:15.171Z,17.72
2022-09-03T06:20:11.969Z,17.63
2022-09-03T06:23:09.091Z,17.83
2022-09-03T06:26:07.039Z,17.98
2022-09-03T06:29:04.332Z,17.99
2022-09-03T06:32:04.694Z,17.90
2022-09-03T06:35:02.134Z,17.67
2022-09-03T06:38:00.498Z,17.81
2022-09-03T06:41:02.045Z,17.89
2022-09-03T06:44:03.421Z,17.97
2022-09-03T06:47:01.583Z,17.95
2022-09-03T06:50:00.221Z,18.02
2022-09-03T06:52:56.949Z,18.12
2022-09-03T06:55:55.317Z,18.16
2022-09-03T06:58:59.827Z,18.22
2022-09-03T07:01:58.657Z,18.03
2022-09-03T07:04:56.303Z,18.32
2022-09-03T07:07:52.793Z,18.49
2022-09-03T07:10:51.267Z,18.47
2022-09-03T07:13:49.120Z,18.71
2022-09-03T07:16:46.470Z,18.69
2022-09-03T07:19:43.995Z,18.85
2022-09-03T07:22:41.340Z,18.75
2022-09-03T07:25:39.094Z,18.95
2022-09-03T07:28:37.433Z,19.06
2022-09-03T07:31:37.478Z,19.19
2022-09-03T07:34:35.703Z,18.99
2022-09-03T07:37:35.508Z,18.84
2022-09-03T07:40:33.329Z,19.05
2022-09-03T07:43:32.088Z,19.04
2022-09-03T07:46:29.525Z,19.25
2022-09-03T07:49:27.032Z,19.51
2022-09-03T07:52:24.066Z,19.78
2022-09-03T07:55:20.986Z,19.73
2022-09-03T07:58:18.187Z,19.93
2022-09-03T08:01:18.067Z,20.13
2022-09-03T08:04:15.195Z,20.01
2022-09-03T08:07:12.269Z,20.08
2022-09-03T08:10:09.537Z,19.98
2022-09-03T08:13:07.231Z,20.22
2022-09-03T08:16:05.480Z,20.47
2022-09-03T08:19:03.808Z,20.42
2022-09-03T08:22:00.938Z,20.63
2022-09-03T08:24:58.249Z,20.95
2022-09-03T08:27:57.800Z,21.29
2022-09-03T08:30:55.529Z,21.43
2022-09-03T08:33:54.103Z,21.64
2022-09-03T08:36:53.332Z,21.48
2022-09-03T08:39:51.146Z,21.65
2022-09-03T08:43:09.718Z,21.75
2022-09-03T08:46:07.069Z,21.90
2022-09-03T08:49:04.390Z,22.12
2022-09-03T08:52:05.872Z,22.10
2022-09-03T08:55:07.571Z,22.16
2022-09-03T08:58:18.755Z,22.39
2022-09-03T09:01:59.227Z,22.46
2022-09-03T09:05:19.503Z,22.55
2022-09-03T09:08:27.093Z,22.61
2022-09-03T09:11:33.718Z,22.90
2022-09-03T09:14:56.277Z,23.05
2022-09-03T09:18:03.099Z,23.18
2022-09-03T09:21:07.892Z,23.22
2022-09-03T09:24:08.784Z,23.38
2022-09-03T09:27:06.106Z,23.35
2022-09-03T09:30:04.862Z,23.16
2022-09-03T09:33:03.152Z,23.48
2022-09-03T09:36:02.959Z,23.62
2022-09-03T09:39:09.697Z,23.25
2022-09-03T09:42:11.370Z,23.43
2022-09-03T09:45:11.559Z,23.77
2022-09-03T09:48:17.713Z,24.03
2022-09-03T09:51:31.137Z,23.88
2022-09-03T09:54:27.920Z,23.72
2022-09-03T09:57:25.383Z,23.88
2022-09-03T10:00:21.944Z,24.03
2022-09-03T10:03:21.287Z,24.12
2022-09-03T10:06:36.854Z,24.09
2022-09-03T10:09:34.352Z,24.40
2022-09-03T10:12:42.193Z,24.53
2022-09-03T10:15:48.200Z,24.46
2022-09-03T10:18:51.478Z,24.48
2022-09-03T10:22:06.147Z,24.53
2022-09-03T10:25:03.647Z,24.62
2022-09-03T10:28:02.138Z,24.71
2022-09-03T10:31:37.126Z,24.63
2022-09-03T10:35:04.136Z,24.60
2022-09-03T10:38:36.652Z,24.85
2022-09-03T10:42:02.660Z,25.13
2022-09-03T10:45:09.719Z,25.03
2022-09-03T10:48:29.058Z,25.46
2022-09-03T10:51:41.040Z,25.41
2022-09-03T10:54:57.292Z,25.14
2022-09-03T10:58:03.311Z,25.21
2022-09-03T11:01:07.212Z,25.25
2022-09-03T11:04:20.045Z,25.47
2022-09-03T11:07:20.779Z,25.59
2022-09-03T11:10:41.091Z,25.41
2022-09-03T11:13:45.098Z,25.59
2022-09-03T11:17:15.791Z,25.49
2022-09-03T11:20:23.820Z,25.64
2022-09-03T11:23:21.870Z,25.26
2022-09-03T11:26:19.890Z,25.34
2022-09-03T11:29:30.456Z,25.49
2022-09-03T11:32:39.922Z,25.53
2022-09-03T11:35:36.914Z,25.63
2022-09-03T11:38:34.550Z,25.75
2022-09-03T11:41:35.845Z,25.89
2022-09-03T11:44:45.900Z,26.06
2022-09-03T11:47:48.742Z,25.76
2022-09-03T11:50:54.405Z,25.66
2022-09-03T11:54:15.727Z,25.56
2022-09-03T11:57:25.098Z,25.73
2022-09-03T12:00:25.017Z,25.98
2022-09-03T12:03:31.217Z,25.86
2022-09-03T12:06:59.736Z,26.05
2022-09-03T12:10:21.717Z,25.99
2022-09-03T12:13:41.921Z,26.23
2022-09-03T12:17:04.175Z,26.23
2022-09-03T12:20:01.702Z,26.24
2022-09-03T12:22:59.393Z,26.25
2022-09-03T12:26:05.323Z,26.15
2022-09-03T12:29:02.724Z,25.92
2022-09-03T12:32:11.730Z,26.13
2022-09-03T12:39:01.033Z,26.17
2022-09-03T12:42:07.753Z,26.25
2022-09-03T12:45:07.146Z,26.63
2022-09-03T12:48:05.411Z,26.86
2022-09-03T12:51:47.827Z,26.76
2022-09-03T12:54:20.463Z,26.29
2022-09-03T12:57:19.887Z,26.45
2022-09-03T13:00:18.825Z,26.70
2022-09-03T13:03:24.707Z,26.63
2022-09-03T13:06:26.559Z,26.63
2022-09-03T13:09:24.519Z,26.83
2022-09-03T13:12:33.532Z,26.74
2022-09-03T13:15:31.594Z,26.75
2022-09-03T13:18:57.029Z,26.50
2022-09-03T13:22:15.760Z,26.60
2022-09-03T13:25:21.245Z,26.88
2022-09-03T13:28:54.691Z,27.01
2022-09-03T13:31:55.670Z,26.91
2022-09-03T13:34:55.860Z,26.80
2022-09-03T13:37:58.198Z,26.42
2022-09-03T13:41:21.137Z,26.59
2022-09-03T13:44:20.121Z,26.61
2022-09-03T13:47:29.869Z,26.15
2022-09-03T13:50:28.472Z,26.19
2022-09-03T13:53:51.865Z,26.12
2022-09-03T13:57:08.032Z,26.00
2022-09-03T14:00:09.006Z,26.36
2022-09-03T14:03:16.664Z,26.70
2022-09-03T14:06:32.382Z,27.06
2022-09-03T14:09:51.970Z,26.96
2022-09-03T14:13:12.059Z,26.71
2022-09-03T14:16:30.865Z,26.01
2022-09-03T14:19:49.093Z,26.40
2022-09-03T14:22:57.621Z,26.64
2022-09-03T14:25:58.025Z,26.67
2022-09-03T14:29:03.231Z,26.83
2022-09-03T14:32:29.440Z,27.07
2022-09-03T14:35:50.656Z,26.88
2022-09-03T14:39:18.233Z,26.86
2022-09-03T14:42:37.044Z,27.26
2022-09-03T14:45:55.825Z,27.34
2022-09-03T14:49:12.043Z,27.33
2022-09-03T14:52:31.524Z,27.53
2022-09-03T14:55:35.519Z,27.61
2022-09-03T14:58:35.329Z,27.17
2022-09-03T15:01:39.503Z,26.69
2022-09-03T15:05:02.570Z,26.84
2022-09-03T15:08:18.828Z,27.04
2022-09-03T15:11:22.820Z,26.85
2022-09-03T15:14:41.609Z,26.74
2022-09-03T15:18:07.653Z,26.86
2022-09-03T15:21:24.510Z,27.00
2022-09-03T15:24:27.636Z,26.87
2022-09-03T15:27:42.074Z,26.74
2022-09-03T15:30:45.194Z,26.61
2022-09-03T15:34:13.167Z,26.72
2022-09-03T15:37:57.827Z,27.07
2022-09-03T15:40:57.125Z,26.70
2022-09-03T15:43:58.952Z,26.73
2022-09-03T15:47:00.516Z,26.57
2022-09-03T15:50:10.415Z,26.55
2022-09-03T15:53:22.519Z,26.57
2022-09-03T15:56:39.880Z,26.42
2022-09-03T15:59:42.684Z,26.30
2022-09-03T16:03:20.416Z,26.05
2022-09-03T16:06:20.937Z,25.99
2022-09-03T16:09:27.894Z,25.99
2022-09-03T16:13:04.653Z,26.28
2022-09-03T16:16:05.996Z,26.21
2022-09-03T16:19:12.113Z,26.13
2022-09-03T16:22:42.442Z,26.14
2022-09-03T16:26:11.131Z,26.06
2022-09-03T16:29:15.781Z,25.86
2022-09-03T16:32:32.502Z,25.85
2022-09-03T16:35:33.050Z,25.81
2022-09-03T16:38:49.824Z,25.88
2022-09-03T16:41:53.116Z,25.88
2022-09-03T16:44:59.925Z,25.93
2022-09-03T16:48:12.215Z,25.77
2022-09-03T16:51:45.311Z,25.61
2022-09-03T16:55:08.626Z,25.66
2022-09-03T16:58:22.290Z,25.67
2022-09-03T17:01:39.713Z,25.73
2022-09-03T17:04:46.368Z,25.53
2022-09-03T17:08:16.377Z,25.55
2022-09-03T17:11:26.951Z,25.34
2022-09-03T17:14:27.636Z,25.27
2022-09-03T17:17:43.570Z,25.21
2022-09-03T17:21:28.886Z,25.37
2022-09-03T17:24:50.833Z,25.28
2022-09-03T17:27:52.090Z,25.39
2022-09-03T17:31:16.137Z,25.37
2022-09-03T17:34:29.660Z,25.28
2022-09-03T17:37:50.283Z,25.18
2022-09-03T17:41:04.146Z,25.28
2022-09-03T17:44:23.086Z,25.25
2022-09-03T17:47:57.267Z,25.09
2022-09-03T17:51:01.754Z,25.07
2022-09-03T17:54:09.314Z,25.02
2022-09-03T17:57:24.690Z,24.97
2022-09-03T18:00:45.904Z,24.74
2022-09-03T18:04:05.115Z,24.78
2022-09-03T18:07:10.725Z,24.75
2022-09-03T18:10:40.108Z,24.59
2022-09-03T18:13:46.176Z,24.38
2022-09-03T18:16:56.424Z,24.33
2022-09-03T18:20:25.444Z,24.14
2022-09-03T18:23:49.081Z,24.15
2022-09-03T18:27:08.051Z,24.06
2022-09-03T18:30:29.208Z,23.97
2022-09-03T18:33:44.990Z,23.94
2022-09-03T18:37:01.307Z,23.83
2022-09-03T18:40:17.131Z,23.76
2022-09-03T18:43:43.028Z,23.77
2022-09-03T18:50:56.737Z,23.52
2022-09-03T18:55:03.950Z,23.41
2022-09-03T18:58:37.929Z,23.47
2022-09-03T19:01:58.479Z,23.44
2022-09-03T19:05:42.640Z,23.17
2022-09-03T19:09:05.747Z,23.31
2022-09-03T19:12:42.834Z,23.28
2022-09-03T19:16:18.379Z,23.26
2022-09-03T19:19:46.486Z,23.15
2022-09-03T19:23:02.742Z,23.11
2022-09-03T19:26:26.950Z,23.01
2022-09-03T19:30:08.847Z,23.01
2022-09-03T19:33:42.903Z,22.98
2022-09-03T19:37:23.236Z,23.16
2022-09-03T19:41:03.888Z,23.09
2022-09-03T19:44:19.405Z,23.05
2022-09-03T19:47:59.545Z,22.91
2022-09-03T19:51:35.512Z,23.05
2022-09-03T19:54:51.485Z,22.90
2022-09-03T19:58:26.165Z,22.80
2022-09-03T20:01:55.291Z,22.87
2022-09-03T20:05:19.018Z,22.96
2022-09-03T20:08:35.319Z,23.11
2022-09-03T20:11:32.625Z,23.06
2022-09-03T20:14:29.853Z,23.16
2022-09-03T20:17:43.119Z,23.11
2022-09-03T20:21:21.349Z,23.14
2022-09-03T20:24:40.002Z,22.95
2022-09-03T20:27:48.813Z,22.92
2022-09-03T20:30:51.888Z,22.94
2022-09-03T20:34:06.856Z,22.62
2022-09-03T20:37:24.941Z,22.56
2022-09-03T20:40:54.613Z,22.49
2022-09-03T20:44:01.568Z,22.47
2022-09-03T20:47:26.650Z,22.64
2022-09-03T20:50:41.198Z,22.52
2022-09-03T20:54:03.688Z,22.57
2022-09-03T20:57:14.569Z,22.52
2022-09-03T21:00:14.146Z,22.39
2022-09-03T21:03:49.965Z,22.25
2022-09-03T21:06:58.755Z,21.88
2022-09-03T21:10:04.046Z,21.87
2022-09-03T21:13:16.488Z,21.94
2022-09-03T21:17:00.305Z,22.08
2022-09-03T21:20:08.304Z,21.93
2022-09-03T21:23:24.550Z,21.67
2022-09-03T21:26:29.871Z,21.53
2022-09-03T21:29:29.463Z,21.49
2022-09-03T21:32:54.244Z,21.56
2022-09-03T21:35:54.757Z,21.65
2022-09-03T21:39:06.244Z,21.52
2022-09-03T21:42:21.327Z,21.65
2022-09-03T21:45:37.004Z,21.80
2022-09-03T21:48:46.812Z,21.61
2022-09-03T21:51:58.753Z,21.67
2022-09-03T21:54:55.799Z,21.63
2022-09-03T21:58:16.894Z,21.55
2022-09-03T22:01:26.373Z,21.49
2022-09-03T22:04:28.141Z,21.49
2022-09-03T22:07:53.412Z,21.64
2022-09-03T22:10:54.051Z,21.56
2022-09-03T22:13:59.142Z,21.53
2022-09-03T22:17:16.825Z,21.56
2022-09-03T22:20:15.555Z,21.46
2022-09-03T22:23:15.636Z,21.32
2022-09-03T22:26:27.960Z,21.22
2022-09-03T22:29:49.218Z,21.23
2022-09-03T22:33:10.305Z,21.11
2022-09-03T22:36:28.548Z,21.21
2022-09-03T22:39:37.555Z,21.10
2022-09-03T22:42:56.689Z,20.91
2022-09-03T22:46:12.944Z,20.68
2022-09-03T22:49:11.232Z,20.63
2022-09-03T22:52:22.568Z,20.50
2022-09-03T22:55:23.172Z,20.34
2022-09-03T22:58:28.951Z,20.29
2022-09-03T23:01:31.491Z,20.20
2022-09-03T23:04:42.340Z,20.15
2022-09-03T23:07:46.282Z,20.07
2022-09-03T23:11:10.382Z,19.98
2022-09-03T23:14:09.758Z,19.89
2022-09-03T23:17:10.140Z,19.75
2022-09-03T23:23:13.347Z,19.57
2022-09-03T23:26:42.907Z,19.64
2022-09-03T23:29:42.863Z,19.62
2022-09-03T23:32:39.849Z,19.56
2022-09-03T23:35:56.636Z,19.58
2022-09-03T23:39:18.472Z,19.61
2022-09-03T23:42:43.053Z,19.74
2022-09-03T23:45:49.383Z,19.76
2022-09-03T23:48:46.676Z,19.68
2022-09-03T23:52:00.664Z,19.79
2022-09-03T23:55:19.505Z,19.69
2022-09-03T23:58:20.607Z,19.68
